createdAt,value
2019-03-04T00:01:16.632Z,15.77
2019-03-04T00:03:43.829Z,15.83
2019-03-04T00:06:11.068Z,18.23
2019-03-04T00:08:38.223Z,26.03
2019-03-04T00:11:05.526Z,31.73
2019-03-04T00:13:32.780Z,35.23
2019-03-04T00:16:00.038Z,33.17
2019-03-04T00:18:27.340Z,31.57
2019-03-04T00:20:54.617Z,38.00
2019-03-04T00:23:21.924Z,25.27
2019-03-04T00:25:49.064Z,20.67
2019-03-04T00:28:16.335Z,24.33
2019-03-04T00:30:43.636Z,24.60
2019-03-04T00:33:10.779Z,24.27
2019-03-04T00:35:38.040Z,25.00
2019-03-04T00:38:05.358Z,35.90
2019-03-04T00:40:32.543Z,37.97
2019-03-04T00:42:59.685Z,39.53
2019-03-04T00:45:27.063Z,42.03
2019-03-04T00:47:54.308Z,41.17
2019-03-04T00:50:21.504Z,33.13
2019-03-04T00:52:48.640Z,25.87
2019-03-04T00:55:16.196Z,21.67
2019-03-04T00:57:43.460Z,24.27
2019-03-04T01:00:15.410Z,30.53
2019-03-04T01:02:42.756Z,29.23
2019-03-04T01:05:10.101Z,29.10
2019-03-04T01:07:37.335Z,45.90
2019-03-04T01:10:10.390Z,48.73
2019-03-04T01:12:37.849Z,24.93
2019-03-04T01:15:08.323Z,27.47
2019-03-04T01:17:35.589Z,29.27
2019-03-04T01:20:05.155Z,32.93
2019-03-04T01:22:32.604Z,30.83
2019-03-04T01:25:00.107Z,38.03
2019-03-04T01:27:27.431Z,25.63
2019-03-04T01:29:54.580Z,28.57
2019-03-04T01:32:21.887Z,32.97
2019-03-04T01:34:49.016Z,27.87
2019-03-04T01:37:16.260Z,32.23
2019-03-04T01:39:43.436Z,30.63
2019-03-04T01:42:10.685Z,28.73
2019-03-04T01:44:37.856Z,23.83
2019-03-04T01:47:05.000Z,28.33
2019-03-04T01:49:32.195Z,24.93
2019-03-04T01:51:59.452Z,27.63
2019-03-04T01:54:28.116Z,32.57
2019-03-04T01:56:55.396Z,31.30
2019-03-04T01:59:22.659Z,41.17
2019-03-04T02:01:49.912Z,33.13
2019-03-04T02:04:17.120Z,41.93
2019-03-04T02:06:44.364Z,34.43
2019-03-04T02:09:11.597Z,32.03
2019-03-04T02:11:38.755Z,36.03
2019-03-04T02:14:06.734Z,34.03
2019-03-04T02:16:33.967Z,29.97
2019-03-04T02:19:01.297Z,37.50
2019-03-04T02:21:28.438Z,35.80
2019-03-04T02:23:59.286Z,32.07
2019-03-04T02:26:26.584Z,36.30
2019-03-04T02:28:53.730Z,38.87
2019-03-04T02:31:20.876Z,38.60
2019-03-04T02:33:48.137Z,37.73
2019-03-04T02:36:15.329Z,39.83
2019-03-04T02:38:42.578Z,36.80
2019-03-04T02:41:09.864Z,32.30
2019-03-04T02:43:37.133Z,34.10
2019-03-04T02:46:04.384Z,31.00
2019-03-04T02:48:31.650Z,31.83
2019-03-04T02:50:58.817Z,33.33
2019-03-04T02:53:26.073Z,30.10
2019-03-04T02:55:53.363Z,32.23
2019-03-04T02:58:20.602Z,29.00
2019-03-04T03:00:47.805Z,25.60
2019-03-04T03:03:15.188Z,28.10
2019-03-04T03:05:42.515Z,26.70
2019-03-04T03:08:09.677Z,27.73
2019-03-04T03:10:36.942Z,28.83
2019-03-04T03:13:04.078Z,23.77
2019-03-04T03:15:31.409Z,23.93
2019-03-04T03:17:58.688Z,26.07
2019-03-04T03:20:25.837Z,23.43
2019-03-04T03:22:53.112Z,31.13
2019-03-04T03:25:20.380Z,26.97
2019-03-04T03:27:47.549Z,25.87
2019-03-04T03:30:20.065Z,24.00
2019-03-04T03:32:47.346Z,25.30
2019-03-04T03:35:14.595Z,26.33
2019-03-04T03:37:41.940Z,26.70
2019-03-04T03:40:16.520Z,26.60
2019-03-04T03:42:43.719Z,24.53
2019-03-04T03:45:11.071Z,24.40
2019-03-04T03:47:38.499Z,23.30
2019-03-04T03:50:08.493Z,26.20
2019-03-04T03:52:35.777Z,22.87
2019-03-04T03:55:05.823Z,25.50
2019-03-04T03:57:33.101Z,25.60
2019-03-04T04:00:00.453Z,24.60
2019-03-04T04:02:27.724Z,24.70
2019-03-04T04:04:54.872Z,23.37
2019-03-04T04:07:22.159Z,23.63
2019-03-04T04:09:49.338Z,28.23
2019-03-04T04:12:16.629Z,25.63
2019-03-04T04:14:43.785Z,25.73
2019-03-04T04:17:10.927Z,23.63
2019-03-04T04:19:38.209Z,23.43
2019-03-04T04:22:05.497Z,28.30
2019-03-04T04:24:32.744Z,23.00
2019-03-04T04:26:59.988Z,28.77
2019-03-04T04:29:27.249Z,23.93
2019-03-04T04:31:54.497Z,24.47
2019-03-04T04:34:22.174Z,24.87
2019-03-04T04:36:49.319Z,23.40
2019-03-04T04:39:16.461Z,23.73
2019-03-04T04:41:43.762Z,28.73
2019-03-04T04:44:11.016Z,25.67
2019-03-04T04:46:49.933Z,26.30
2019-03-04T04:49:17.078Z,26.13
2019-03-04T04:51:44.323Z,28.90
2019-03-04T04:54:11.496Z,28.73
2019-03-04T04:56:38.637Z,24.63
2019-03-04T04:59:05.905Z,22.40
2019-03-04T05:01:33.179Z,23.40
2019-03-04T05:04:00.354Z,24.47
2019-03-04T05:06:27.519Z,23.60
2019-03-04T05:08:54.792Z,24.47
2019-03-04T05:11:21.953Z,23.03
2019-03-04T05:13:49.197Z,24.57
2019-03-04T05:16:16.465Z,23.10
2019-03-04T05:18:43.652Z,30.53
2019-03-04T05:21:10.791Z,25.40
2019-03-04T05:23:38.037Z,27.07
2019-03-04T05:26:05.314Z,27.73
2019-03-04T05:28:32.456Z,27.37
2019-03-04T05:30:59.608Z,31.20
2019-03-04T05:33:26.877Z,31.03
2019-03-04T05:35:54.140Z,33.47
2019-03-04T05:38:21.456Z,32.07
2019-03-04T05:40:48.631Z,32.17
2019-03-04T05:43:15.983Z,35.03
2019-03-04T05:45:43.284Z,34.33
2019-03-04T05:48:10.440Z,38.00
2019-03-04T05:50:37.754Z,35.57
2019-03-04T05:53:05.012Z,39.20
2019-03-04T05:55:32.156Z,39.33
2019-03-04T05:58:04.077Z,40.93
2019-03-04T06:00:38.581Z,40.30
2019-03-04T06:03:11.704Z,38.00
2019-03-04T06:05:39.307Z,38.30
2019-03-04T06:08:10.746Z,40.40
2019-03-04T06:10:38.117Z,33.80
2019-03-04T06:13:05.292Z,43.03
2019-03-04T06:15:32.575Z,38.93
2019-03-04T06:17:59.692Z,46.53
2019-03-04T06:20:26.984Z,41.90
2019-03-04T06:22:54.445Z,38.37
2019-03-04T06:25:25.220Z,40.23
2019-03-04T06:27:52.807Z,32.07
2019-03-04T06:30:21.803Z,48.13
2019-03-04T06:32:49.114Z,35.13
2019-03-04T06:35:16.597Z,34.33
2019-03-04T06:37:43.901Z,36.80
2019-03-04T06:40:13.453Z,40.57
2019-03-04T06:42:40.593Z,36.47
2019-03-04T06:45:13.415Z,35.90
2019-03-04T06:47:40.655Z,38.93
2019-03-04T06:50:29.211Z,38.27
2019-03-04T06:52:58.575Z,37.07
2019-03-04T06:55:41.349Z,38.03
2019-03-04T06:58:08.608Z,34.53
2019-03-04T07:00:41.960Z,34.87
2019-03-04T07:03:09.228Z,32.70
2019-03-04T07:05:45.019Z,31.30
2019-03-04T07:08:35.494Z,36.30
2019-03-04T07:11:02.901Z,38.80
2019-03-04T07:13:32.004Z,40.43
2019-03-04T07:15:59.262Z,46.17
2019-03-04T07:18:26.432Z,51.37
2019-03-04T07:20:53.726Z,34.73
2019-03-04T07:23:20.988Z,37.97
2019-03-04T07:25:48.235Z,31.77
2019-03-04T07:28:15.411Z,29.77
2019-03-04T07:30:42.656Z,30.97
2019-03-04T07:33:09.867Z,31.37
2019-03-04T07:35:37.004Z,29.48
2019-03-04T07:38:13.599Z,29.37
2019-03-04T07:40:41.004Z,33.90
2019-03-04T07:43:08.285Z,34.95
2019-03-04T07:45:35.581Z,38.80
2019-03-04T07:48:02.620Z,37.80
2019-03-04T07:50:29.892Z,41.23
2019-03-04T07:52:57.388Z,37.20
2019-03-04T07:55:24.629Z,27.85
2019-03-04T07:57:51.772Z,28.65
2019-03-04T08:00:19.047Z,24.35
2019-03-04T08:02:46.325Z,23.45
2019-03-04T08:05:13.489Z,23.75
2019-03-04T08:07:46.916Z,28.50
2019-03-04T08:10:29.619Z,28.62
2019-03-04T08:13:06.337Z,32.58
2019-03-04T08:15:35.706Z,26.40
2019-03-04T08:18:03.162Z,28.77
2019-03-04T08:20:30.437Z,24.02
2019-03-04T08:22:57.681Z,30.20
2019-03-04T08:25:25.005Z,33.07
2019-03-04T08:27:52.160Z,32.33
2019-03-04T08:30:19.503Z,32.73
2019-03-04T08:32:46.713Z,25.35
2019-03-04T08:35:13.849Z,27.47
2019-03-04T08:37:41.111Z,26.80
2019-03-04T08:40:10.873Z,23.97
2019-03-04T08:42:38.024Z,36.85
2019-03-04T08:45:11.139Z,23.07
2019-03-04T08:47:38.284Z,23.83
2019-03-04T08:50:08.457Z,24.47
2019-03-04T08:52:35.731Z,28.07
2019-03-04T08:55:04.483Z,26.60
2019-03-04T08:57:32.157Z,24.98
2019-03-04T08:59:59.517Z,26.63
2019-03-04T09:02:26.751Z,19.80
2019-03-04T09:04:54.043Z,28.43
2019-03-04T09:07:21.349Z,23.35
2019-03-04T09:09:48.595Z,30.92
2019-03-04T09:12:16.018Z,28.00
2019-03-04T09:14:43.207Z,24.70
2019-03-04T09:17:10.745Z,21.62
2019-03-04T09:19:38.006Z,29.87
2019-03-04T09:22:05.286Z,30.45
2019-03-04T09:24:32.562Z,30.60
2019-03-04T09:26:59.740Z,27.27
2019-03-04T09:29:26.897Z,25.17
2019-03-04T09:31:54.097Z,24.25
2019-03-04T09:34:21.341Z,23.32
2019-03-04T09:36:48.713Z,20.60
2019-03-04T09:39:16.585Z,25.30
2019-03-04T09:41:43.733Z,25.72
2019-03-04T09:44:10.992Z,25.12
2019-03-04T09:46:38.381Z,24.20
2019-03-04T09:49:05.601Z,20.23
2019-03-04T09:51:32.757Z,18.37
2019-03-04T09:54:00.045Z,21.73
2019-03-04T09:56:27.405Z,17.57
2019-03-04T09:58:54.664Z,22.60
2019-03-04T10:01:27.609Z,16.17
2019-03-04T10:04:07.457Z,21.30
2019-03-04T10:07:04.012Z,21.42
2019-03-04T10:09:51.266Z,31.10
2019-03-04T10:12:47.218Z,22.22
2019-03-04T10:15:40.321Z,19.87
2019-03-04T10:18:26.468Z,24.92
2019-03-04T10:21:27.351Z,17.90
2019-03-04T10:24:07.264Z,24.75
2019-03-04T10:26:43.964Z,23.15
2019-03-04T10:29:20.849Z,21.55
2019-03-04T10:32:03.755Z,20.88
2019-03-04T10:34:37.727Z,16.00
2019-03-04T10:37:11.485Z,20.50
2019-03-04T10:39:54.187Z,18.15
2019-03-04T10:42:43.259Z,22.07
2019-03-04T10:45:29.312Z,25.20
2019-03-04T10:47:56.556Z,20.15
2019-03-04T10:50:23.814Z,21.57
2019-03-04T10:52:51.116Z,18.92
2019-03-04T10:55:18.373Z,19.23
2019-03-04T10:57:45.544Z,16.17
2019-03-04T11:00:14.752Z,19.40
2019-03-04T11:02:41.994Z,19.00
2019-03-04T11:05:09.247Z,19.95
2019-03-04T11:07:36.446Z,16.05
2019-03-04T11:10:06.693Z,18.77
2019-03-04T11:12:34.067Z,17.27
2019-03-04T11:15:01.308Z,14.53
2019-03-04T11:17:28.523Z,18.85
2019-03-04T11:19:55.778Z,20.55
2019-03-04T11:22:22.923Z,18.73
2019-03-04T11:24:50.214Z,25.05
2019-03-04T11:27:17.569Z,24.75
2019-03-04T11:29:44.818Z,35.25
2019-03-04T11:32:11.988Z,20.00
2019-03-04T11:34:39.280Z,16.67
2019-03-04T11:37:06.433Z,20.45
2019-03-04T11:39:38.032Z,15.80
2019-03-04T11:42:05.176Z,19.30
2019-03-04T11:44:32.313Z,23.35
2019-03-04T11:46:59.515Z,17.48
2019-03-04T11:49:26.768Z,20.82
2019-03-04T11:51:54.072Z,19.25
2019-03-04T11:54:21.428Z,24.18
2019-03-04T11:56:48.705Z,20.32
2019-03-04T11:59:16.053Z,21.80
2019-03-04T12:01:45.128Z,16.50
2019-03-04T12:04:12.353Z,21.95
2019-03-04T12:06:39.693Z,21.73
2019-03-04T12:09:11.609Z,18.23
2019-03-04T12:11:39.084Z,19.95
2019-03-04T12:14:06.443Z,15.30
2019-03-04T12:16:33.760Z,16.50
2019-03-04T12:19:01.041Z,18.62
2019-03-04T12:21:28.217Z,17.23
2019-03-04T12:23:55.829Z,18.35
2019-03-04T12:26:23.114Z,15.70
2019-03-04T12:28:50.771Z,23.38
2019-03-04T12:31:18.059Z,15.43
2019-03-04T12:33:45.336Z,18.60
2019-03-04T12:36:12.503Z,19.23
2019-03-04T12:38:39.857Z,23.47
2019-03-04T12:41:07.395Z,23.52
2019-03-04T12:43:34.611Z,19.20
2019-03-04T12:46:01.875Z,19.02
2019-03-04T12:48:29.244Z,16.67
2019-03-04T12:50:56.508Z,21.95
2019-03-04T12:53:23.755Z,24.00
2019-03-04T12:55:51.027Z,15.98
2019-03-04T12:58:18.313Z,20.32
2019-03-04T13:00:45.615Z,19.17
2019-03-04T13:03:19.328Z,19.48
2019-03-04T13:05:46.671Z,18.70
2019-03-04T13:08:13.968Z,19.77
2019-03-04T13:10:41.321Z,18.85
2019-03-04T13:13:09.016Z,22.98
2019-03-04T13:15:37.259Z,26.05
2019-03-04T13:18:11.942Z,21.27
2019-03-04T13:20:39.212Z,16.70
2019-03-04T13:23:06.506Z,20.52
2019-03-04T13:25:33.716Z,16.77
2019-03-04T13:28:07.829Z,21.75
2019-03-04T13:30:33.385Z,17.75
2019-03-04T13:33:00.713Z,16.75
2019-03-04T13:35:37.378Z,19.70
2019-03-04T13:38:04.766Z,20.80
2019-03-04T13:40:32.017Z,19.07
2019-03-04T13:42:59.464Z,15.10
2019-03-04T13:45:27.651Z,18.87
2019-03-04T13:47:54.896Z,21.20
2019-03-04T13:50:30.068Z,19.62
2019-03-04T13:52:57.203Z,20.92
2019-03-04T13:55:24.917Z,19.85
2019-03-04T13:57:52.190Z,17.35
2019-03-04T14:00:38.562Z,22.25
2019-03-04T14:03:05.914Z,27.37
2019-03-04T14:05:33.205Z,27.25
2019-03-04T14:08:00.468Z,20.95
2019-03-04T14:10:34.101Z,21.23
2019-03-04T14:13:01.355Z,17.75
2019-03-04T14:15:39.461Z,21.42
2019-03-04T14:18:06.879Z,20.48
2019-03-04T14:20:34.169Z,17.95
2019-03-04T14:23:01.362Z,19.90
2019-03-04T14:25:28.679Z,18.45
2019-03-04T14:27:55.859Z,20.82
2019-03-04T14:30:24.192Z,23.75
2019-03-04T14:32:51.466Z,18.52
2019-03-04T14:35:18.692Z,17.85
2019-03-04T14:37:45.851Z,18.62
2019-03-04T14:40:18.189Z,21.87
2019-03-04T14:42:45.651Z,22.25
2019-03-04T14:45:19.895Z,17.77
2019-03-04T14:47:47.299Z,22.15
2019-03-04T14:50:15.939Z,20.85
2019-03-04T14:52:43.592Z,22.45
2019-03-04T14:55:13.659Z,19.25
2019-03-04T14:57:41.020Z,22.13
2019-03-04T15:00:23.727Z,24.05
2019-03-04T15:02:51.798Z,26.50
2019-03-04T15:05:19.064Z,31.02
2019-03-04T15:07:46.329Z,30.45
2019-03-04T15:10:13.584Z,23.83
2019-03-04T15:12:40.767Z,23.90
2019-03-04T15:15:11.461Z,26.40
2019-03-04T15:17:38.749Z,25.75
2019-03-04T15:20:09.862Z,39.38
2019-03-04T15:22:37.139Z,27.90
2019-03-04T15:25:08.055Z,30.12
2019-03-04T15:27:35.308Z,40.80
2019-03-04T15:30:05.794Z,38.98
2019-03-04T15:32:32.936Z,33.53
2019-03-04T15:35:00.374Z,24.10
2019-03-04T15:37:27.567Z,28.25
2019-03-04T15:39:54.805Z,10.53
2019-03-04T15:42:22.136Z,7.85
2019-03-04T15:44:49.284Z,8.23
2019-03-04T15:47:16.541Z,8.90
2019-03-04T15:49:43.740Z,19.90
2019-03-04T15:52:11.009Z,9.60
2019-03-04T15:54:38.272Z,12.03
2019-03-04T15:57:06.296Z,9.00
2019-03-04T15:59:33.561Z,7.83
2019-03-04T16:02:04.929Z,9.73
2019-03-04T16:04:32.223Z,12.87
2019-03-04T16:06:59.491Z,8.33
2019-03-04T16:09:26.749Z,10.67
2019-03-04T16:11:54.129Z,8.77
2019-03-04T16:14:21.378Z,15.23
2019-03-04T16:16:48.644Z,11.20
2019-03-04T16:19:15.953Z,11.77
2019-03-04T16:21:44.645Z,13.17
2019-03-04T16:24:11.947Z,12.73
2019-03-04T16:26:39.236Z,18.80
2019-03-04T16:29:06.488Z,22.00
2019-03-04T16:31:33.775Z,30.80
2019-03-04T16:34:02.851Z,22.17
2019-03-04T16:36:30.114Z,21.63
2019-03-04T16:38:57.397Z,22.23
2019-03-04T16:41:24.908Z,18.50
2019-03-04T16:43:52.206Z,14.63
2019-03-04T16:46:19.472Z,14.30
2019-03-04T16:48:46.785Z,14.07
2019-03-04T16:51:14.060Z,12.80
2019-03-04T16:53:41.323Z,15.73
2019-03-04T16:56:08.621Z,17.17
2019-03-04T16:58:35.883Z,17.03
2019-03-04T17:01:03.688Z,14.30
2019-03-04T17:03:30.973Z,11.70
2019-03-04T17:05:58.232Z,11.77
2019-03-04T17:08:25.565Z,13.00
2019-03-04T17:10:52.949Z,11.23
2019-03-04T17:13:20.422Z,12.13
2019-03-04T17:15:47.683Z,12.60
2019-03-04T17:18:14.965Z,9.23
2019-03-04T17:20:42.232Z,13.67
2019-03-04T17:23:09.609Z,14.43
2019-03-04T17:25:36.973Z,11.03
2019-03-04T17:28:04.402Z,13.07
2019-03-04T17:30:31.708Z,13.03
2019-03-04T17:32:59.399Z,21.33
2019-03-04T17:35:26.704Z,13.23
2019-03-04T17:37:53.953Z,15.77
2019-03-04T17:40:23.608Z,21.43
2019-03-04T17:42:51.216Z,20.07
2019-03-04T17:45:24.326Z,18.97
2019-03-04T17:47:51.875Z,11.70
2019-03-04T17:50:36.214Z,14.33
2019-03-04T17:53:05.612Z,12.37
2019-03-04T17:55:32.898Z,13.07
2019-03-04T17:58:00.151Z,11.43
2019-03-04T18:00:27.880Z,11.97
2019-03-04T18:02:55.184Z,15.37
2019-03-04T18:05:22.516Z,18.73
2019-03-04T18:07:49.873Z,16.90
2019-03-04T18:10:17.546Z,18.57
2019-03-04T18:12:45.065Z,18.50
2019-03-04T18:15:20.733Z,21.10
2019-03-04T18:17:48.101Z,24.43
2019-03-04T18:20:15.372Z,26.63
2019-03-04T18:22:43.728Z,31.40
2019-03-04T18:25:14.625Z,26.63
2019-03-04T18:27:45.092Z,37.93
2019-03-04T18:30:25.145Z,33.20
2019-03-04T18:32:59.025Z,31.27
2019-03-04T18:35:36.027Z,35.70
2019-03-04T18:38:12.718Z,38.67
2019-03-04T18:40:49.384Z,37.60
2019-03-04T18:43:53.636Z,41.77
2019-03-04T18:46:36.391Z,31.07
2019-03-04T18:49:03.691Z,25.90
2019-03-04T18:51:30.915Z,16.80
2019-03-04T18:54:00.441Z,17.70
2019-03-04T18:56:27.703Z,16.87
2019-03-04T18:58:55.054Z,19.90
2019-03-04T19:01:22.467Z,16.33
2019-03-04T19:03:49.927Z,18.23
2019-03-04T19:06:17.304Z,18.17
2019-03-04T19:08:44.623Z,18.30
2019-03-04T19:11:11.928Z,13.73
2019-03-04T19:13:39.297Z,23.53
2019-03-04T19:16:08.034Z,17.87
2019-03-04T19:18:35.345Z,15.90
2019-03-04T19:21:02.627Z,14.93
2019-03-04T19:23:29.927Z,17.33
2019-03-04T19:25:57.209Z,11.33
2019-03-04T19:28:24.630Z,8.57
2019-03-04T19:30:51.876Z,11.40
2019-03-04T19:33:19.149Z,11.93
2019-03-04T19:35:46.427Z,12.27
2019-03-04T19:38:13.700Z,9.90
2019-03-04T19:40:40.953Z,11.50
2019-03-04T19:43:08.498Z,8.97
2019-03-04T19:45:37.796Z,12.77
2019-03-04T19:48:05.104Z,10.27
2019-03-04T19:50:32.471Z,8.60
2019-03-04T19:52:59.717Z,13.07
2019-03-04T19:55:27.028Z,9.73
2019-03-04T19:57:54.701Z,7.80
2019-03-04T20:00:25.053Z,5.77
2019-03-04T20:02:52.580Z,4.17
2019-03-04T20:05:20.880Z,7.07
2019-03-04T20:07:48.295Z,4.97
2019-03-04T20:10:16.378Z,5.80
2019-03-04T20:12:43.641Z,5.60
2019-03-04T20:15:22.905Z,5.47
2019-03-04T20:17:50.211Z,7.30
2019-03-04T20:20:17.469Z,4.83
2019-03-04T20:22:44.801Z,3.83
2019-03-04T20:25:13.753Z,3.23
2019-03-04T20:27:41.004Z,9.17
2019-03-04T20:30:11.879Z,8.37
2019-03-04T20:32:39.145Z,7.37
2019-03-04T20:35:09.029Z,4.97
2019-03-04T20:37:37.001Z,4.70
2019-03-04T20:40:07.377Z,8.47
2019-03-04T20:42:34.695Z,5.13
2019-03-04T20:45:02.017Z,3.03
2019-03-04T20:47:29.286Z,6.43
2019-03-04T20:49:56.545Z,6.90
2019-03-04T20:52:23.863Z,5.43
2019-03-04T20:54:51.141Z,8.60
2019-03-04T20:57:18.485Z,6.20
2019-03-04T20:59:45.761Z,8.77
2019-03-04T21:02:13.017Z,6.00
2019-03-04T21:04:40.283Z,5.20
2019-03-04T21:07:07.658Z,4.37
2019-03-04T21:09:34.970Z,5.43
2019-03-04T21:12:02.251Z,4.93
2019-03-04T21:14:29.525Z,4.20
2019-03-04T21:16:56.845Z,5.07
2019-03-04T21:19:24.193Z,7.27
2019-03-04T21:21:51.486Z,3.97
2019-03-04T21:24:18.888Z,7.20
2019-03-04T21:26:46.248Z,5.10
2019-03-04T21:29:17.100Z,4.70
2019-03-04T21:32:05.843Z,8.07
2019-03-04T21:35:00.853Z,9.10
2019-03-04T21:37:31.520Z,7.33
2019-03-04T21:40:17.506Z,6.83
2019-03-04T21:42:57.445Z,8.83
2019-03-04T21:45:31.835Z,10.43
2019-03-04T21:48:02.703Z,8.53
2019-03-04T21:50:45.458Z,8.40
2019-03-04T21:53:25.376Z,11.87
2019-03-04T21:56:11.344Z,10.33
2019-03-04T21:58:38.622Z,12.40
2019-03-04T22:01:12.545Z,11.17
2019-03-04T22:03:39.845Z,11.60
2019-03-04T22:06:08.103Z,13.33
2019-03-04T22:08:35.406Z,10.27
2019-03-04T22:11:02.648Z,10.40
2019-03-04T22:13:29.928Z,12.10
2019-03-04T22:15:57.218Z,12.00
2019-03-04T22:18:24.476Z,12.47
2019-03-04T22:20:51.747Z,10.20
2019-03-04T22:23:19.070Z,11.43
2019-03-04T22:25:46.317Z,13.60
2019-03-04T22:28:13.607Z,12.87
2019-03-04T22:30:40.964Z,13.47
2019-03-04T22:33:08.225Z,14.40
2019-03-04T22:35:35.464Z,11.47
2019-03-04T22:38:02.775Z,13.23
2019-03-04T22:40:30.040Z,9.43
2019-03-04T22:42:57.308Z,12.80
2019-03-04T22:45:24.627Z,11.07
2019-03-04T22:47:51.860Z,11.23
2019-03-04T22:50:20.325Z,10.80
2019-03-04T22:52:47.752Z,11.53
2019-03-04T22:55:20.688Z,12.50
2019-03-04T22:57:47.961Z,14.27
2019-03-04T23:00:48.617Z,10.53
2019-03-04T23:03:16.667Z,14.97
2019-03-04T23:05:49.779Z,12.33
2019-03-04T23:08:17.060Z,9.77
2019-03-04T23:10:46.017Z,18.70
2019-03-04T23:13:22.652Z,12.03
2019-03-04T23:15:51.425Z,8.70
2019-03-04T23:18:18.680Z,11.70
2019-03-04T23:20:45.952Z,8.63
2019-03-04T23:23:13.217Z,12.77
2019-03-04T23:25:40.471Z,10.07
2019-03-04T23:28:07.775Z,9.93
2019-03-04T23:30:35.033Z,11.93
2019-03-04T23:33:02.365Z,13.20
2019-03-04T23:35:29.616Z,11.53
2019-03-04T23:37:56.918Z,10.50
2019-03-04T23:40:24.217Z,11.60
2019-03-04T23:42:51.456Z,11.80
2019-03-04T23:45:18.703Z,13.43
2019-03-04T23:47:46.007Z,12.17
2019-03-04T23:50:22.124Z,13.70
2019-03-04T23:52:49.451Z,11.30
2019-03-04T23:55:16.609Z,13.93
2019-03-04T23:57:43.967Z,14.47
